createdAt,value
2019-01-17T00:04:38.923Z,77.26
2019-01-17T00:08:54.620Z,77.43
2019-01-17T00:13:09.998Z,77.30
2019-01-17T00:17:33.512Z,77.51
2019-01-17T00:21:57.651Z,77.65
2019-01-17T00:26:12.585Z,77.92
2019-01-17T00:30:39.543Z,77.73
2019-01-17T00:35:06.334Z,78.00
2019-01-17T00:39:29.236Z,77.94
2019-01-17T00:43:56.796Z,78.11
2019-01-17T00:48:23.886Z,78.63
2019-01-17T00:52:47.915Z,78.76
2019-01-17T00:57:14.752Z,78.86
2019-01-17T01:01:37.557Z,78.80
2019-01-17T01:05:52.527Z,78.72
2019-01-17T01:10:22.711Z,78.35
2019-01-17T01:14:44.075Z,78.63
2019-01-17T01:19:11.746Z,78.63
2019-01-17T01:23:39.113Z,78.50
2019-01-17T01:28:08.107Z,78.47
2019-01-17T01:32:40.970Z,78.44
2019-01-17T01:37:03.723Z,78.53
2019-01-17T01:41:18.221Z,78.71
2019-01-17T01:45:39.078Z,78.66
2019-01-17T01:49:51.824Z,78.85
2019-01-17T01:53:56.925Z,78.83
2019-01-17T01:58:02.084Z,79.06
2019-01-17T02:02:07.238Z,79.03
2019-01-17T02:06:12.349Z,79.08
2019-01-17T02:10:17.413Z,79.00
2019-01-17T02:14:22.457Z,79.01
2019-01-17T02:18:27.603Z,79.01
2019-01-17T02:22:32.769Z,78.83
2019-01-17T02:26:37.904Z,78.93
2019-01-17T02:30:42.879Z,78.90
2019-01-17T02:34:48.944Z,78.96
2019-01-17T02:38:54.077Z,78.90
2019-01-17T02:42:59.126Z,78.89
2019-01-17T02:47:04.096Z,79.02
2019-01-17T02:51:09.014Z,79.09
2019-01-17T02:55:14.070Z,79.18
2019-01-17T02:59:19.197Z,79.21
2019-01-17T03:03:24.338Z,79.27
2019-01-17T03:07:29.378Z,79.26
2019-01-17T03:11:34.395Z,79.29
2019-01-17T03:15:39.446Z,79.36
2019-01-17T03:19:44.572Z,79.36
2019-01-17T03:23:49.677Z,79.36
2019-01-17T03:27:54.929Z,79.42
2019-01-17T03:31:59.958Z,79.43
2019-01-17T03:36:05.039Z,79.42
2019-01-17T03:40:12.041Z,79.29
2019-01-17T03:44:17.071Z,79.31
2019-01-17T03:48:22.229Z,79.23
2019-01-17T03:52:27.362Z,79.29
2019-01-17T03:56:32.636Z,79.29
2019-01-17T04:00:37.766Z,79.12
2019-01-17T04:04:42.936Z,79.09
2019-01-17T04:08:47.889Z,79.03
2019-01-17T04:12:52.986Z,79.01
2019-01-17T04:16:58.054Z,79.05
2019-01-17T04:21:03.207Z,79.06
2019-01-17T04:25:08.767Z,78.79
2019-01-17T04:29:13.825Z,78.75
2019-01-17T04:33:18.935Z,78.67
2019-01-17T04:37:23.974Z,78.84
2019-01-17T04:41:29.286Z,79.00
2019-01-17T04:45:34.336Z,79.02
2019-01-17T04:49:39.370Z,79.08
2019-01-17T04:53:44.399Z,79.01
2019-01-17T04:57:49.408Z,78.90
2019-01-17T05:01:54.513Z,78.86
2019-01-17T05:05:59.683Z,78.80
2019-01-17T05:10:05.397Z,78.57
2019-01-17T05:14:10.482Z,78.46
2019-01-17T05:18:15.508Z,78.37
2019-01-17T05:22:20.655Z,78.34
2019-01-17T05:26:25.804Z,78.50
2019-01-17T05:30:30.946Z,78.41
2019-01-17T05:34:39.605Z,78.41
2019-01-17T05:38:42.926Z,78.38
2019-01-17T05:42:48.894Z,78.32
2019-01-17T05:46:54.040Z,78.37
2019-01-17T05:50:59.060Z,78.49
2019-01-17T05:55:04.784Z,78.52
2019-01-17T05:59:09.781Z,78.58
2019-01-17T06:03:14.872Z,78.69
2019-01-17T06:07:19.935Z,78.82
2019-01-17T06:11:25.100Z,78.72
2019-01-17T06:15:30.624Z,78.25
2019-01-17T06:19:35.704Z,78.02
2019-01-17T06:23:41.494Z,77.94
2019-01-17T06:27:46.617Z,77.68
2019-01-17T06:31:51.644Z,77.66
2019-01-17T06:35:56.700Z,77.48
2019-01-17T06:40:01.749Z,76.75
2019-01-17T06:44:06.773Z,76.58
2019-01-17T06:48:11.849Z,75.15
2019-01-17T06:52:16.891Z,75.15
2019-01-17T06:56:21.951Z,75.49
2019-01-17T07:00:27.100Z,75.09
2019-01-17T07:04:32.100Z,75.75
2019-01-17T07:08:37.162Z,75.71
2019-01-17T07:12:42.219Z,75.42
2019-01-17T07:16:47.270Z,75.71
2019-01-17T07:20:52.419Z,75.06
2019-01-17T07:24:57.462Z,75.61
2019-01-17T07:29:02.600Z,76.01
2019-01-17T07:33:07.663Z,76.41
2019-01-17T07:37:12.791Z,76.89
2019-01-17T07:41:17.800Z,77.44
2019-01-17T07:45:25.725Z,76.89
2019-01-17T07:49:31.985Z,76.56
2019-01-17T07:53:37.095Z,76.32
2019-01-17T07:57:42.709Z,76.22
2019-01-17T08:01:47.718Z,75.51
2019-01-17T08:05:52.736Z,75.22
2019-01-17T08:09:57.764Z,75.23
2019-01-17T08:14:04.222Z,75.12
2019-01-17T08:18:09.713Z,75.05
2019-01-17T08:22:14.739Z,75.22
2019-01-17T08:26:19.839Z,74.95
2019-01-17T08:30:26.889Z,74.88
2019-01-17T08:34:31.910Z,74.85
2019-01-17T08:38:37.012Z,74.63
2019-01-17T08:42:43.008Z,74.10
2019-01-17T08:46:47.942Z,73.82
2019-01-17T08:50:53.868Z,73.50
2019-01-17T08:54:58.880Z,73.13
2019-01-17T08:59:03.950Z,72.81
2019-01-17T09:03:09.093Z,72.83
2019-01-17T09:07:14.184Z,72.71
2019-01-17T09:11:19.186Z,72.49
2019-01-17T09:15:26.450Z,72.50
2019-01-17T09:19:31.554Z,73.17
2019-01-17T09:23:36.648Z,73.64
2019-01-17T09:27:41.756Z,74.26
2019-01-17T09:31:46.751Z,75.05
2019-01-17T09:35:51.783Z,74.63
2019-01-17T09:39:56.896Z,74.86
2019-01-17T09:44:01.912Z,75.25
2019-01-17T09:48:06.934Z,76.17
2019-01-17T09:52:15.186Z,76.71
2019-01-17T09:56:20.183Z,76.80
2019-01-17T10:00:27.456Z,76.42
2019-01-17T10:04:32.519Z,77.15
2019-01-17T10:08:37.619Z,76.87
2019-01-17T10:12:42.889Z,77.34
2019-01-17T10:17:34.548Z,77.10
2019-01-17T10:22:04.482Z,77.43
2019-01-17T10:26:22.319Z,76.94
2019-01-17T10:30:55.250Z,77.43
2019-01-17T10:35:33.009Z,77.75
2019-01-17T10:39:51.002Z,77.53
2019-01-17T10:44:17.123Z,77.48
2019-01-17T10:48:46.054Z,77.71
2019-01-17T10:53:40.763Z,77.90
2019-01-17T10:58:03.883Z,78.40
2019-01-17T11:03:01.749Z,78.53
2019-01-17T11:07:29.330Z,78.26
2019-01-17T11:12:15.228Z,78.58
2019-01-17T11:17:12.056Z,78.71
2019-01-17T11:21:56.943Z,78.44
2019-01-17T11:26:37.389Z,78.56
2019-01-17T11:31:23.465Z,79.06
2019-01-17T11:35:55.556Z,78.88
2019-01-17T11:40:31.657Z,78.36
2019-01-17T11:44:54.323Z,78.13
2019-01-17T11:49:45.089Z,78.62
2019-01-17T11:54:25.105Z,78.83
2019-01-17T11:59:10.555Z,78.31
2019-01-17T12:04:01.086Z,77.48
2019-01-17T12:08:06.069Z,77.39
2019-01-17T12:12:13.143Z,77.53
2019-01-17T12:16:18.195Z,77.46
2019-01-17T12:20:23.296Z,77.43
2019-01-17T12:24:28.437Z,77.06
2019-01-17T12:28:33.534Z,77.59
2019-01-17T12:32:38.822Z,77.59
2019-01-17T12:36:43.971Z,77.65
2019-01-17T12:40:49.106Z,77.85
2019-01-17T12:44:54.256Z,77.85
2019-01-17T12:48:59.170Z,77.97
2019-01-17T12:53:04.242Z,78.15
2019-01-17T12:57:09.518Z,78.37
2019-01-17T13:01:16.156Z,78.39
2019-01-17T13:05:21.611Z,77.52
2019-01-17T13:09:26.863Z,77.09
2019-01-17T13:13:31.913Z,77.20
2019-01-17T13:17:36.961Z,77.22
2019-01-17T13:21:42.322Z,76.47
2019-01-17T13:25:47.394Z,76.84
2019-01-17T13:29:52.431Z,76.70
2019-01-17T13:33:57.825Z,75.35
2019-01-17T13:38:02.889Z,75.02
2019-01-17T13:42:07.956Z,74.65
2019-01-17T13:46:13.087Z,74.72
2019-01-17T13:50:18.440Z,74.02
2019-01-17T13:54:23.512Z,73.84
2019-01-17T13:58:28.528Z,73.84
2019-01-17T14:02:34.382Z,72.95
2019-01-17T14:06:39.496Z,73.47
2019-01-17T14:10:44.674Z,72.32
2019-01-17T14:14:49.749Z,72.77
2019-01-17T14:18:54.732Z,72.00
2019-01-17T14:22:59.741Z,72.21
2019-01-17T14:27:04.786Z,73.27
2019-01-17T14:31:09.846Z,72.11
2019-01-17T14:35:14.834Z,71.97
2019-01-17T14:39:19.987Z,71.86
2019-01-17T14:43:26.649Z,71.71
2019-01-17T14:47:31.674Z,72.11
2019-01-17T14:51:36.872Z,72.04
2019-01-17T14:55:43.179Z,72.15
2019-01-17T14:59:48.375Z,72.28
2019-01-17T15:03:53.515Z,72.45
2019-01-17T15:07:58.560Z,72.89
2019-01-17T15:12:03.594Z,73.35
2019-01-17T15:16:08.668Z,73.88
2019-01-17T15:20:17.685Z,72.21
2019-01-17T15:24:22.659Z,71.13
2019-01-17T15:28:27.784Z,69.76
2019-01-17T15:32:32.842Z,70.51
2019-01-17T15:36:38.041Z,70.46
2019-01-17T15:40:43.097Z,69.89
2019-01-17T15:44:48.142Z,70.59
2019-01-17T15:48:57.848Z,70.39
2019-01-17T15:53:02.985Z,70.38
2019-01-17T15:57:08.207Z,70.42
2019-01-17T16:01:16.847Z,70.18
2019-01-17T16:05:21.990Z,71.02
2019-01-17T16:09:27.076Z,71.38
2019-01-17T16:13:32.208Z,71.43
2019-01-17T16:17:37.278Z,71.85
2019-01-17T16:21:42.399Z,72.34
2019-01-17T16:25:47.917Z,72.17
2019-01-17T16:29:53.027Z,72.65
2019-01-17T16:33:58.370Z,73.41
2019-01-17T16:38:03.734Z,72.97
2019-01-17T16:42:08.697Z,73.02
2019-01-17T16:46:13.951Z,73.66
2019-01-17T16:50:21.569Z,74.66
2019-01-17T16:54:26.790Z,75.39
2019-01-17T16:58:31.861Z,75.94
2019-01-17T17:02:39.284Z,75.80
2019-01-17T17:06:44.303Z,76.58
2019-01-17T17:10:50.723Z,76.60
2019-01-17T17:14:55.749Z,77.00
2019-01-17T17:19:00.800Z,77.20
2019-01-17T17:23:06.194Z,77.32
2019-01-17T17:27:11.170Z,76.58
2019-01-17T17:31:16.234Z,76.41
2019-01-17T17:35:21.337Z,76.50
2019-01-17T17:39:27.866Z,76.46
2019-01-17T17:43:33.677Z,76.40
2019-01-17T17:47:40.094Z,76.29
2019-01-17T17:51:46.094Z,76.43
2019-01-17T17:55:52.168Z,76.87
2019-01-17T17:59:58.903Z,77.36
2019-01-17T18:04:05.124Z,77.84
2019-01-17T18:08:11.869Z,78.15
2019-01-17T18:12:17.788Z,78.64
2019-01-17T18:16:23.541Z,79.11
2019-01-17T18:20:30.429Z,79.76
2019-01-17T18:24:36.178Z,80.11
2019-01-17T18:28:42.561Z,80.53
2019-01-17T18:32:48.382Z,80.86
2019-01-17T18:36:54.206Z,81.00
2019-01-17T18:41:02.230Z,81.22
2019-01-17T18:45:09.851Z,81.38
2019-01-17T18:49:15.776Z,81.42
2019-01-17T18:53:20.864Z,81.44
2019-01-17T18:57:25.933Z,81.56
2019-01-17T19:01:31.108Z,81.58
2019-01-17T19:05:36.245Z,81.61
2019-01-17T19:09:41.511Z,81.55
2019-01-17T19:13:48.212Z,81.49
2019-01-17T19:17:53.395Z,81.29
2019-01-17T19:21:58.506Z,81.16
2019-01-17T19:26:03.639Z,81.08
2019-01-17T19:30:12.147Z,81.01
2019-01-17T19:34:17.394Z,80.98
2019-01-17T19:38:22.547Z,80.93
2019-01-17T19:42:28.970Z,80.89
2019-01-17T19:46:34.143Z,80.90
2019-01-17T19:50:39.899Z,80.66
2019-01-17T19:54:44.852Z,80.58
2019-01-17T19:58:50.263Z,80.57
2019-01-17T20:02:55.450Z,80.59
2019-01-17T20:07:00.764Z,80.64
2019-01-17T20:11:06.968Z,80.68
2019-01-17T20:15:12.357Z,80.78
2019-01-17T20:19:17.518Z,80.80
2019-01-17T20:23:23.045Z,80.83
2019-01-17T20:27:28.230Z,80.57
2019-01-17T20:31:33.317Z,80.45
2019-01-17T20:35:38.578Z,80.10
2019-01-17T20:39:45.175Z,79.75
2019-01-17T20:43:50.495Z,79.54
2019-01-17T20:47:55.746Z,79.43
2019-01-17T20:52:01.807Z,79.43
2019-01-17T20:56:07.034Z,79.38
2019-01-17T21:00:16.673Z,79.51
2019-01-17T21:04:21.859Z,79.59
2019-01-17T21:08:27.031Z,79.51
2019-01-17T21:12:32.111Z,79.69
2019-01-17T21:16:37.227Z,79.93
2019-01-17T21:20:42.240Z,80.07
2019-01-17T21:24:47.682Z,80.08
2019-01-17T21:28:52.850Z,80.17
2019-01-17T21:32:58.028Z,80.18
2019-01-17T21:37:04.059Z,80.16
2019-01-17T21:41:09.251Z,80.17
2019-01-17T21:45:15.670Z,80.11
2019-01-17T21:49:20.956Z,80.06
2019-01-17T21:53:26.736Z,80.00
2019-01-17T21:57:31.807Z,79.94
2019-01-17T22:01:36.911Z,79.90
2019-01-17T22:05:42.620Z,79.93
2019-01-17T22:09:49.140Z,79.97
2019-01-17T22:13:54.298Z,80.04
2019-01-17T22:17:59.425Z,80.05
2019-01-17T22:22:04.505Z,79.96
2019-01-17T22:26:10.695Z,80.05
2019-01-17T22:30:21.014Z,80.01
2019-01-17T22:34:26.086Z,79.95
2019-01-17T22:38:31.290Z,80.00
2019-01-17T22:42:36.595Z,80.27
2019-01-17T22:46:41.696Z,80.41
2019-01-17T22:50:46.859Z,80.49
2019-01-17T22:54:52.031Z,80.56
2019-01-17T22:58:57.138Z,80.65
2019-01-17T23:03:02.214Z,80.78
2019-01-17T23:07:07.309Z,80.82
2019-01-17T23:11:12.507Z,80.81
2019-01-17T23:15:17.588Z,80.82
2019-01-17T23:19:22.768Z,80.76
2019-01-17T23:23:27.830Z,80.71
2019-01-17T23:27:33.178Z,80.68
2019-01-17T23:31:38.339Z,80.66
2019-01-17T23:35:43.532Z,80.60
2019-01-17T23:39:48.979Z,80.59
2019-01-17T23:43:54.636Z,80.56
2019-01-17T23:48:00.042Z,80.59
2019-01-17T23:52:05.485Z,80.63
2019-01-17T23:56:10.582Z,80.55
